sensor_id;sensor_type;location;lat;lon;timestamp;P1;durP1;ratioP1;P2;durP2;ratioP2
54157;SDS011;40065;49.894;10.358;2024-03-02T00:04:20;33.63;;;16.55;;
54157;SDS011;40065;49.894;10.358;2024-03-02T00:09:22;34.67;;;17.50;;
54157;SDS011;40065;49.894;10.358;2024-03-02T00:14:24;33.45;;;16.05;;
54157;SDS011;40065;49.894;10.358;2024-03-02T00:19:26;34.83;;;16.45;;
54157;SDS011;40065;49.894;10.358;2024-03-02T00:24:31;34.83;;;17.48;;
54157;SDS011;40065;49.894;10.358;2024-03-02T00:29:36;41.33;;;18.55;;
54157;SDS011;40065;49.894;10.358;2024-03-02T00:34:38;37.50;;;17.85;;
54157;SDS011;40065;49.894;10.358;2024-03-02T00:39:40;35.67;;;17.35;;
54157;SDS011;40065;49.894;10.358;2024-03-02T00:44:41;32.22;;;16.58;;
54157;SDS011;40065;49.894;10.358;2024-03-02T00:49:43;35.70;;;17.02;;
54157;SDS011;40065;49.894;10.358;2024-03-02T00:54:48;35.38;;;17.08;;
54157;SDS011;40065;49.894;10.358;2024-03-02T00:59:51;29.63;;;15.57;;
54157;SDS011;40065;49.894;10.358;2024-03-02T01:04:53;34.75;;;15.40;;
54157;SDS011;40065;49.894;10.358;2024-03-02T01:09:55;26.75;;;13.50;;
54157;SDS011;40065;49.894;10.358;2024-03-02T01:14:57;27.67;;;14.07;;
54157;SDS011;40065;49.894;10.358;2024-03-02T01:19:59;30.42;;;15.15;;
54157;SDS011;40065;49.894;10.358;2024-03-02T01:25:01;27.58;;;14.73;;
54157;SDS011;40065;49.894;10.358;2024-03-02T01:30:03;31.92;;;15.30;;
54157;SDS011;40065;49.894;10.358;2024-03-02T01:35:05;30.20;;;14.73;;
54157;SDS011;40065;49.894;10.358;2024-03-02T01:40:09;31.02;;;15.05;;
54157;SDS011;40065;49.894;10.358;2024-03-02T01:45:11;31.42;;;15.70;;
54157;SDS011;40065;49.894;10.358;2024-03-02T01:50:13;30.00;;;15.63;;
54157;SDS011;40065;49.894;10.358;2024-03-02T01:55:16;35.47;;;16.80;;
54157;SDS011;40065;49.894;10.358;2024-03-02T02:00:20;29.85;;;15.38;;
54157;SDS011;40065;49.894;10.358;2024-03-02T02:05:23;28.25;;;14.65;;
54157;SDS011;40065;49.894;10.358;2024-03-02T02:10:25;29.17;;;14.15;;
54157;SDS011;40065;49.894;10.358;2024-03-02T02:15:30;29.45;;;14.98;;
54157;SDS011;40065;49.894;10.358;2024-03-02T02:20:32;24.48;;;13.77;;
54157;SDS011;40065;49.894;10.358;2024-03-02T02:25:34;24.52;;;12.73;;
54157;SDS011;40065;49.894;10.358;2024-03-02T02:30:36;23.70;;;11.55;;
54157;SDS011;40065;49.894;10.358;2024-03-02T02:35:38;25.70;;;12.50;;
54157;SDS011;40065;49.894;10.358;2024-03-02T02:40:40;22.05;;;10.73;;
54157;SDS011;40065;49.894;10.358;2024-03-02T02:45:42;23.98;;;12.88;;
54157;SDS011;40065;49.894;10.358;2024-03-02T02:50:43;28.40;;;13.23;;
54157;SDS011;40065;49.894;10.358;2024-03-02T02:55:45;20.88;;;11.07;;
54157;SDS011;40065;49.894;10.358;2024-03-02T03:00:47;25.17;;;12.77;;
54157;SDS011;40065;49.894;10.358;2024-03-02T03:05:49;22.45;;;12.30;;
54157;SDS011;40065;49.894;10.358;2024-03-02T03:10:51;22.70;;;12.48;;
54157;SDS011;40065;49.894;10.358;2024-03-02T03:15:53;24.20;;;12.20;;
54157;SDS011;40065;49.894;10.358;2024-03-02T03:20:55;20.73;;;11.68;;
54157;SDS011;40065;49.894;10.358;2024-03-02T03:25:57;22.25;;;11.48;;
54157;SDS011;40065;49.894;10.358;2024-03-02T03:30:58;24.35;;;11.52;;
54157;SDS011;40065;49.894;10.358;2024-03-02T03:36:00;24.65;;;12.02;;
54157;SDS011;40065;49.894;10.358;2024-03-02T03:41:04;24.17;;;13.00;;
54157;SDS011;40065;49.894;10.358;2024-03-02T03:46:07;28.35;;;13.52;;
54157;SDS011;40065;49.894;10.358;2024-03-02T03:51:08;26.73;;;14.30;;
54157;SDS011;40065;49.894;10.358;2024-03-02T03:56:10;23.60;;;13.05;;
54157;SDS011;40065;49.894;10.358;2024-03-02T04:01:12;25.77;;;14.27;;
54157;SDS011;40065;49.894;10.358;2024-03-02T04:06:14;24.33;;;13.77;;
54157;SDS011;40065;49.894;10.358;2024-03-02T04:11:18;29.23;;;14.15;;
54157;SDS011;40065;49.894;10.358;2024-03-02T04:16:20;28.08;;;14.68;;
54157;SDS011;40065;49.894;10.358;2024-03-02T04:21:22;25.15;;;13.73;;
54157;SDS011;40065;49.894;10.358;2024-03-02T04:26:24;28.00;;;14.18;;
54157;SDS011;40065;49.894;10.358;2024-03-02T04:31:27;30.33;;;15.45;;
54157;SDS011;40065;49.894;10.358;2024-03-02T04:36:28;29.85;;;15.07;;
54157;SDS011;40065;49.894;10.358;2024-03-02T04:41:31;29.05;;;15.38;;
54157;SDS011;40065;49.894;10.358;2024-03-02T04:46:32;28.30;;;14.82;;
54157;SDS011;40065;49.894;10.358;2024-03-02T04:51:34;30.45;;;15.90;;
54157;SDS011;40065;49.894;10.358;2024-03-02T04:56:36;28.50;;;15.57;;
54157;SDS011;40065;49.894;10.358;2024-03-02T05:01:51;26.27;;;14.32;;
54157;SDS011;40065;49.894;10.358;2024-03-02T05:06:53;27.38;;;14.77;;
54157;SDS011;40065;49.894;10.358;2024-03-02T05:11:57;30.50;;;15.88;;
54157;SDS011;40065;49.894;10.358;2024-03-02T05:17:18;26.85;;;14.60;;
54157;SDS011;40065;49.894;10.358;2024-03-02T05:22:20;27.73;;;14.77;;
54157;SDS011;40065;49.894;10.358;2024-03-02T05:27:22;26.10;;;13.57;;
54157;SDS011;40065;49.894;10.358;2024-03-02T05:32:23;31.20;;;15.30;;
54157;SDS011;40065;49.894;10.358;2024-03-02T05:37:25;34.22;;;16.85;;
54157;SDS011;40065;49.894;10.358;2024-03-02T05:42:28;36.30;;;17.55;;
54157;SDS011;40065;49.894;10.358;2024-03-02T05:47:30;31.50;;;15.82;;
54157;SDS011;40065;49.894;10.358;2024-03-02T05:52:31;33.95;;;16.88;;
54157;SDS011;40065;49.894;10.358;2024-03-02T05:57:34;33.55;;;16.38;;
54157;SDS011;40065;49.894;10.358;2024-03-02T06:02:44;32.92;;;15.80;;
54157;SDS011;40065;49.894;10.358;2024-03-02T06:07:46;29.98;;;15.55;;
54157;SDS011;40065;49.894;10.358;2024-03-02T06:12:48;31.98;;;15.73;;
54157;SDS011;40065;49.894;10.358;2024-03-02T06:17:50;30.90;;;14.98;;
54157;SDS011;40065;49.894;10.358;2024-03-02T06:22:52;32.60;;;14.77;;
54157;SDS011;40065;49.894;10.358;2024-03-02T06:27:54;28.23;;;14.52;;
54157;SDS011;40065;49.894;10.358;2024-03-02T06:32:56;26.50;;;14.20;;
54157;SDS011;40065;49.894;10.358;2024-03-02T06:37:58;28.17;;;14.52;;
54157;SDS011;40065;49.894;10.358;2024-03-02T06:42:59;29.38;;;14.95;;
54157;SDS011;40065;49.894;10.358;2024-03-02T06:48:03;27.90;;;14.63;;
54157;SDS011;40065;49.894;10.358;2024-03-02T06:53:05;27.92;;;14.35;;
54157;SDS011;40065;49.894;10.358;2024-03-02T06:58:07;23.60;;;12.85;;
54157;SDS011;40065;49.894;10.358;2024-03-02T07:03:09;24.75;;;13.63;;
54157;SDS011;40065;49.894;10.358;2024-03-02T07:08:11;22.27;;;12.50;;
54157;SDS011;40065;49.894;10.358;2024-03-02T07:13:13;23.25;;;12.98;;
54157;SDS011;40065;49.894;10.358;2024-03-02T07:18:15;23.30;;;12.30;;
54157;SDS011;40065;49.894;10.358;2024-03-02T07:23:16;24.10;;;12.85;;
54157;SDS011;40065;49.894;10.358;2024-03-02T07:28:18;21.52;;;12.27;;
54157;SDS011;40065;49.894;10.358;2024-03-02T07:33:20;21.17;;;12.38;;
54157;SDS011;40065;49.894;10.358;2024-03-02T07:38:24;20.73;;;12.03;;
54157;SDS011;40065;49.894;10.358;2024-03-02T07:43:26;19.20;;;11.10;;
54157;SDS011;40065;49.894;10.358;2024-03-02T07:48:28;21.73;;;11.80;;
54157;SDS011;40065;49.894;10.358;2024-03-02T07:53:30;18.85;;;10.43;;
54157;SDS011;40065;49.894;10.358;2024-03-02T07:58:32;16.80;;;9.88;;
54157;SDS011;40065;49.894;10.358;2024-03-02T08:03:35;16.08;;;9.68;;
54157;SDS011;40065;49.894;10.358;2024-03-02T08:08:38;16.17;;;9.50;;
54157;SDS011;40065;49.894;10.358;2024-03-02T08:13:40;15.27;;;10.55;;
54157;SDS011;40065;49.894;10.358;2024-03-02T08:18:42;17.35;;;10.10;;
54157;SDS011;40065;49.894;10.358;2024-03-02T08:23:44;15.80;;;9.98;;
54157;SDS011;40065;49.894;10.358;2024-03-02T08:28:46;15.00;;;9.73;;
54157;SDS011;40065;49.894;10.358;2024-03-02T08:33:48;15.20;;;9.52;;
54157;SDS011;40065;49.894;10.358;2024-03-02T08:38:50;15.35;;;10.18;;
54157;SDS011;40065;49.894;10.358;2024-03-02T08:43:52;17.77;;;10.68;;
54157;SDS011;40065;49.894;10.358;2024-03-02T08:48:54;20.20;;;10.43;;
54157;SDS011;40065;49.894;10.358;2024-03-02T08:53:56;15.25;;;9.88;;
54157;SDS011;40065;49.894;10.358;2024-03-02T08:58:59;15.93;;;9.73;;
54157;SDS011;40065;49.894;10.358;2024-03-02T09:04:01;15.05;;;9.35;;
54157;SDS011;40065;49.894;10.358;2024-03-02T09:09:03;13.57;;;8.25;;
54157;SDS011;40065;49.894;10.358;2024-03-02T09:14:05;11.95;;;7.35;;
54157;SDS011;40065;49.894;10.358;2024-03-02T09:19:07;11.98;;;7.45;;
54157;SDS011;40065;49.894;10.358;2024-03-02T09:24:11;12.23;;;7.87;;
54157;SDS011;40065;49.894;10.358;2024-03-02T09:29:18;12.13;;;7.60;;
54157;SDS011;40065;49.894;10.358;2024-03-02T09:34:22;11.43;;;7.57;;
54157;SDS011;40065;49.894;10.358;2024-03-02T09:39:24;11.20;;;7.05;;
54157;SDS011;40065;49.894;10.358;2024-03-02T09:44:26;10.88;;;7.07;;
54157;SDS011;40065;49.894;10.358;2024-03-02T09:49:28;10.38;;;7.05;;
54157;SDS011;40065;49.894;10.358;2024-03-02T09:54:30;11.73;;;6.88;;
54157;SDS011;40065;49.894;10.358;2024-03-02T09:59:32;10.52;;;7.28;;
54157;SDS011;40065;49.894;10.358;2024-03-02T10:04:34;11.05;;;6.43;;
54157;SDS011;40065;49.894;10.358;2024-03-02T10:09:39;9.98;;;6.97;;
54157;SDS011;40065;49.894;10.358;2024-03-02T10:14:42;11.85;;;7.18;;
54157;SDS011;40065;49.894;10.358;2024-03-02T10:19:44;11.43;;;7.60;;
54157;SDS011;40065;49.894;10.358;2024-03-02T10:24:46;12.45;;;7.20;;
54157;SDS011;40065;49.894;10.358;2024-03-02T10:29:51;12.45;;;6.63;;
54157;SDS011;40065;49.894;10.358;2024-03-02T10:34:53;10.25;;;6.47;;
54157;SDS011;40065;49.894;10.358;2024-03-02T10:39:57;9.32;;;6.10;;
54157;SDS011;40065;49.894;10.358;2024-03-02T10:45:05;12.13;;;6.13;;
54157;SDS011;40065;49.894;10.358;2024-03-02T10:50:09;7.97;;;5.72;;
54157;SDS011;40065;49.894;10.358;2024-03-02T10:55:12;9.82;;;6.60;;
54157;SDS011;40065;49.894;10.358;2024-03-02T11:00:14;8.65;;;6.07;;
54157;SDS011;40065;49.894;10.358;2024-03-02T11:05:19;9.32;;;6.15;;
54157;SDS011;40065;49.894;10.358;2024-03-02T11:10:28;10.32;;;6.72;;
54157;SDS011;40065;49.894;10.358;2024-03-02T11:15:39;8.80;;;5.28;;
54157;SDS011;40065;49.894;10.358;2024-03-02T11:20:43;8.65;;;5.57;;
54157;SDS011;40065;49.894;10.358;2024-03-02T11:25:45;7.75;;;5.25;;
54157;SDS011;40065;49.894;10.358;2024-03-02T11:30:49;7.43;;;4.88;;
54157;SDS011;40065;49.894;10.358;2024-03-02T11:35:51;8.32;;;5.57;;
54157;SDS011;40065;49.894;10.358;2024-03-02T11:40:53;8.95;;;5.10;;
54157;SDS011;40065;49.894;10.358;2024-03-02T11:45:59;8.35;;;5.40;;
54157;SDS011;40065;49.894;10.358;2024-03-02T11:51:02;6.97;;;5.05;;
54157;SDS011;40065;49.894;10.358;2024-03-02T11:56:04;6.63;;;4.65;;
54157;SDS011;40065;49.894;10.358;2024-03-02T12:01:10;7.28;;;4.93;;
54157;SDS011;40065;49.894;10.358;2024-03-02T12:06:14;8.00;;;4.95;;
54157;SDS011;40065;49.894;10.358;2024-03-02T12:11:17;6.90;;;4.63;;
54157;SDS011;40065;49.894;10.358;2024-03-02T12:16:23;6.45;;;4.15;;
54157;SDS011;40065;49.894;10.358;2024-03-02T12:21:25;7.88;;;4.68;;
54157;SDS011;40065;49.894;10.358;2024-03-02T12:26:27;5.53;;;3.67;;
54157;SDS011;40065;49.894;10.358;2024-03-02T12:31:30;6.90;;;4.55;;
54157;SDS011;40065;49.894;10.358;2024-03-02T12:36:37;9.60;;;4.53;;
54157;SDS011;40065;49.894;10.358;2024-03-02T12:41:40;6.57;;;4.05;;
54157;SDS011;40065;49.894;10.358;2024-03-02T12:46:42;5.57;;;3.67;;
54157;SDS011;40065;49.894;10.358;2024-03-02T12:51:45;5.88;;;4.05;;
54157;SDS011;40065;49.894;10.358;2024-03-02T12:56:53;4.68;;;3.20;;
54157;SDS011;40065;49.894;10.358;2024-03-02T13:01:55;5.90;;;3.83;;
54157;SDS011;40065;49.894;10.358;2024-03-02T13:06:59;5.32;;;3.50;;
54157;SDS011;40065;49.894;10.358;2024-03-02T13:12:01;5.97;;;3.35;;
54157;SDS011;40065;49.894;10.358;2024-03-02T13:17:05;5.18;;;3.40;;
54157;SDS011;40065;49.894;10.358;2024-03-02T13:22:10;10.05;;;6.30;;
54157;SDS011;40065;49.894;10.358;2024-03-02T13:27:12;5.32;;;3.30;;
54157;SDS011;40065;49.894;10.358;2024-03-02T13:32:14;5.55;;;3.45;;
54157;SDS011;40065;49.894;10.358;2024-03-02T13:37:17;4.90;;;3.20;;
54157;SDS011;40065;49.894;10.358;2024-03-02T13:42:19;4.97;;;3.35;;
54157;SDS011;40065;49.894;10.358;2024-03-02T13:47:20;6.05;;;3.33;;
54157;SDS011;40065;49.894;10.358;2024-03-02T13:52:22;4.47;;;2.95;;
54157;SDS011;40065;49.894;10.358;2024-03-02T13:57:27;6.45;;;3.40;;
54157;SDS011;40065;49.894;10.358;2024-03-02T14:02:29;4.35;;;3.10;;
54157;SDS011;40065;49.894;10.358;2024-03-02T14:07:31;4.93;;;3.28;;
54157;SDS011;40065;49.894;10.358;2024-03-02T14:12:32;6.05;;;3.10;;
54157;SDS011;40065;49.894;10.358;2024-03-02T14:17:34;3.53;;;2.47;;
54157;SDS011;40065;49.894;10.358;2024-03-02T14:22:36;3.85;;;2.53;;
54157;SDS011;40065;49.894;10.358;2024-03-02T14:27:38;4.75;;;3.10;;
54157;SDS011;40065;49.894;10.358;2024-03-02T14:33:00;5.00;;;2.60;;
54157;SDS011;40065;49.894;10.358;2024-03-02T14:38:02;5.82;;;2.70;;
54157;SDS011;40065;49.894;10.358;2024-03-02T14:43:04;4.65;;;2.90;;
54157;SDS011;40065;49.894;10.358;2024-03-02T14:48:07;4.20;;;2.72;;
54157;SDS011;40065;49.894;10.358;2024-03-02T14:53:09;5.60;;;3.20;;
54157;SDS011;40065;49.894;10.358;2024-03-02T14:58:11;5.88;;;3.60;;
54157;SDS011;40065;49.894;10.358;2024-03-02T15:03:13;6.00;;;3.72;;
54157;SDS011;40065;49.894;10.358;2024-03-02T15:08:15;6.15;;;4.20;;
54157;SDS011;40065;49.894;10.358;2024-03-02T15:13:17;7.45;;;4.88;;
54157;SDS011;40065;49.894;10.358;2024-03-02T15:18:19;8.15;;;5.20;;
54157;SDS011;40065;49.894;10.358;2024-03-02T15:23:21;9.65;;;5.03;;
54157;SDS011;40065;49.894;10.358;2024-03-02T15:28:23;8.43;;;4.93;;
54157;SDS011;40065;49.894;10.358;2024-03-02T15:33:25;6.70;;;4.45;;
54157;SDS011;40065;49.894;10.358;2024-03-02T15:38:32;6.30;;;4.38;;
54157;SDS011;40065;49.894;10.358;2024-03-02T15:43:37;8.63;;;4.18;;
54157;SDS011;40065;49.894;10.358;2024-03-02T15:48:42;8.75;;;4.93;;
54157;SDS011;40065;49.894;10.358;2024-03-02T15:53:44;8.00;;;4.93;;
54157;SDS011;40065;49.894;10.358;2024-03-02T15:58:46;7.78;;;4.57;;
54157;SDS011;40065;49.894;10.358;2024-03-02T16:03:48;7.68;;;4.40;;
54157;SDS011;40065;49.894;10.358;2024-03-02T16:08:53;6.20;;;3.70;;
54157;SDS011;40065;49.894;10.358;2024-03-02T16:18:59;6.55;;;3.90;;
54157;SDS011;40065;49.894;10.358;2024-03-02T16:24:01;7.60;;;4.30;;
54157;SDS011;40065;49.894;10.358;2024-03-02T16:29:03;7.63;;;4.15;;
54157;SDS011;40065;49.894;10.358;2024-03-02T16:34:05;7.72;;;4.47;;
54157;SDS011;40065;49.894;10.358;2024-03-02T16:39:08;9.00;;;4.50;;
54157;SDS011;40065;49.894;10.358;2024-03-02T16:44:10;8.32;;;4.80;;
54157;SDS011;40065;49.894;10.358;2024-03-02T16:49:12;8.15;;;4.63;;
54157;SDS011;40065;49.894;10.358;2024-03-02T16:54:14;9.27;;;4.95;;
54157;SDS011;40065;49.894;10.358;2024-03-02T16:59:16;12.20;;;6.00;;
54157;SDS011;40065;49.894;10.358;2024-03-02T17:04:18;11.82;;;6.00;;
54157;SDS011;40065;49.894;10.358;2024-03-02T17:09:23;8.77;;;5.28;;
54157;SDS011;40065;49.894;10.358;2024-03-02T17:14:25;11.35;;;6.50;;
54157;SDS011;40065;49.894;10.358;2024-03-02T17:19:27;11.90;;;6.60;;
54157;SDS011;40065;49.894;10.358;2024-03-02T17:24:29;15.73;;;7.72;;
54157;SDS011;40065;49.894;10.358;2024-03-02T17:29:31;13.85;;;8.05;;
54157;SDS011;40065;49.894;10.358;2024-03-02T17:34:35;16.25;;;9.35;;
54157;SDS011;40065;49.894;10.358;2024-03-02T17:39:37;18.05;;;9.95;;
54157;SDS011;40065;49.894;10.358;2024-03-02T17:44:39;21.50;;;10.60;;
54157;SDS011;40065;49.894;10.358;2024-03-02T17:49:41;19.55;;;10.15;;
54157;SDS011;40065;49.894;10.358;2024-03-02T17:54:43;21.50;;;10.38;;
54157;SDS011;40065;49.894;10.358;2024-03-02T17:59:45;20.58;;;10.82;;
54157;SDS011;40065;49.894;10.358;2024-03-02T18:04:46;22.85;;;10.65;;
54157;SDS011;40065;49.894;10.358;2024-03-02T18:09:48;24.55;;;13.65;;
54157;SDS011;40065;49.894;10.358;2024-03-02T18:14:50;32.70;;;12.93;;
54157;SDS011;40065;49.894;10.358;2024-03-02T18:19:52;22.50;;;11.05;;
54157;SDS011;40065;49.894;10.358;2024-03-02T18:24:54;22.88;;;10.95;;
54157;SDS011;40065;49.894;10.358;2024-03-02T18:29:56;22.50;;;11.02;;
54157;SDS011;40065;49.894;10.358;2024-03-02T18:34:58;28.27;;;13.38;;
54157;SDS011;40065;49.894;10.358;2024-03-02T18:40:00;20.52;;;10.27;;
54157;SDS011;40065;49.894;10.358;2024-03-02T18:45:01;21.75;;;11.15;;
54157;SDS011;40065;49.894;10.358;2024-03-02T18:50:05;27.92;;;15.80;;
54157;SDS011;40065;49.894;10.358;2024-03-02T18:55:09;24.85;;;12.40;;
54157;SDS011;40065;49.894;10.358;2024-03-02T19:00:13;28.52;;;14.18;;
54157;SDS011;40065;49.894;10.358;2024-03-02T19:05:15;29.80;;;13.05;;
54157;SDS011;40065;49.894;10.358;2024-03-02T19:10:17;28.10;;;13.68;;
54157;SDS011;40065;49.894;10.358;2024-03-02T19:15:19;29.55;;;13.20;;
54157;SDS011;40065;49.894;10.358;2024-03-02T19:20:21;26.88;;;13.45;;
54157;SDS011;40065;49.894;10.358;2024-03-02T19:25:24;27.67;;;12.98;;
54157;SDS011;40065;49.894;10.358;2024-03-02T19:30:26;31.08;;;12.95;;
54157;SDS011;40065;49.894;10.358;2024-03-02T19:35:28;29.17;;;13.55;;
54157;SDS011;40065;49.894;10.358;2024-03-02T19:40:30;48.15;;;21.42;;
54157;SDS011;40065;49.894;10.358;2024-03-02T19:45:32;36.10;;;16.20;;
54157;SDS011;40065;49.894;10.358;2024-03-02T19:50:34;55.47;;;22.02;;
54157;SDS011;40065;49.894;10.358;2024-03-02T19:55:37;25.85;;;13.70;;
54157;SDS011;40065;49.894;10.358;2024-03-02T20:00:41;21.63;;;11.53;;
54157;SDS011;40065;49.894;10.358;2024-03-02T20:05:43;27.38;;;13.35;;
54157;SDS011;40065;49.894;10.358;2024-03-02T20:10:45;24.92;;;12.07;;
54157;SDS011;40065;49.894;10.358;2024-03-02T20:15:48;27.40;;;15.43;;
54157;SDS011;40065;49.894;10.358;2024-03-02T20:20:50;27.55;;;15.55;;
54157;SDS011;40065;49.894;10.358;2024-03-02T20:25:52;28.33;;;14.80;;
54157;SDS011;40065;49.894;10.358;2024-03-02T20:30:55;26.70;;;13.40;;
54157;SDS011;40065;49.894;10.358;2024-03-02T20:35:57;34.28;;;17.40;;
54157;SDS011;40065;49.894;10.358;2024-03-02T20:40:59;26.90;;;14.10;;
54157;SDS011;40065;49.894;10.358;2024-03-02T20:46:01;28.52;;;14.27;;
54157;SDS011;40065;49.894;10.358;2024-03-02T20:51:07;33.28;;;15.48;;
54157;SDS011;40065;49.894;10.358;2024-03-02T20:56:10;26.85;;;12.85;;
54157;SDS011;40065;49.894;10.358;2024-03-02T21:01:12;23.85;;;12.38;;
54157;SDS011;40065;49.894;10.358;2024-03-02T21:06:14;27.30;;;14.20;;
54157;SDS011;40065;49.894;10.358;2024-03-02T21:11:16;22.65;;;12.60;;
54157;SDS011;40065;49.894;10.358;2024-03-02T21:16:19;25.80;;;13.05;;
54157;SDS011;40065;49.894;10.358;2024-03-02T21:21:22;22.85;;;12.05;;
54157;SDS011;40065;49.894;10.358;2024-03-02T21:26:23;23.75;;;12.68;;
54157;SDS011;40065;49.894;10.358;2024-03-02T21:31:25;25.20;;;13.48;;
54157;SDS011;40065;49.894;10.358;2024-03-02T21:36:27;28.25;;;16.77;;
54157;SDS011;40065;49.894;10.358;2024-03-02T21:41:29;22.23;;;12.40;;
54157;SDS011;40065;49.894;10.358;2024-03-02T21:46:31;24.05;;;12.45;;
54157;SDS011;40065;49.894;10.358;2024-03-02T21:51:33;24.23;;;12.43;;
54157;SDS011;40065;49.894;10.358;2024-03-02T21:56:35;22.45;;;13.32;;
54157;SDS011;40065;49.894;10.358;2024-03-02T22:01:37;23.80;;;12.63;;
54157;SDS011;40065;49.894;10.358;2024-03-02T22:06:39;22.85;;;12.32;;
54157;SDS011;40065;49.894;10.358;2024-03-02T22:11:41;21.80;;;11.77;;
54157;SDS011;40065;49.894;10.358;2024-03-02T22:16:43;23.25;;;12.05;;
54157;SDS011;40065;49.894;10.358;2024-03-02T22:21:45;22.80;;;12.60;;
54157;SDS011;40065;49.894;10.358;2024-03-02T22:26:47;22.05;;;12.27;;
54157;SDS011;40065;49.894;10.358;2024-03-02T22:31:49;20.15;;;11.82;;
54157;SDS011;40065;49.894;10.358;2024-03-02T22:36:51;23.30;;;12.77;;
54157;SDS011;40065;49.894;10.358;2024-03-02T22:41:53;24.08;;;13.27;;
54157;SDS011;40065;49.894;10.358;2024-03-02T22:46:56;20.50;;;12.32;;
54157;SDS011;40065;49.894;10.358;2024-03-02T22:51:58;25.35;;;12.50;;
54157;SDS011;40065;49.894;10.358;2024-03-02T22:57:00;22.33;;;12.63;;
54157;SDS011;40065;49.894;10.358;2024-03-02T23:02:02;22.05;;;12.38;;
54157;SDS011;40065;49.894;10.358;2024-03-02T23:07:05;22.23;;;12.23;;
54157;SDS011;40065;49.894;10.358;2024-03-02T23:12:07;19.92;;;11.70;;
54157;SDS011;40065;49.894;10.358;2024-03-02T23:17:09;21.38;;;12.55;;
54157;SDS011;40065;49.894;10.358;2024-03-02T23:22:11;23.17;;;12.55;;
54157;SDS011;40065;49.894;10.358;2024-03-02T23:27:14;22.08;;;12.63;;
54157;SDS011;40065;49.894;10.358;2024-03-02T23:32:16;23.08;;;11.90;;
54157;SDS011;40065;49.894;10.358;2024-03-02T23:37:18;22.05;;;11.88;;
54157;SDS011;40065;49.894;10.358;2024-03-02T23:42:20;21.08;;;12.25;;
54157;SDS011;40065;49.894;10.358;2024-03-02T23:47:22;20.88;;;12.40;;
54157;SDS011;40065;49.894;10.358;2024-03-02T23:52:24;22.95;;;12.85;;
54157;SDS011;40065;49.894;10.358;2024-03-02T23:57:26;17.58;;;11.35;;
